CheckWX is a tool to help pilots better visualize weather data.  It is not intended as a substitute for an official pre-flight weather briefing.

05:39:49 UTC

KLWA METAR
South Haven Area Regional Airport
South Haven, Michigan, USA
Current

25 mins ago

KLWA 240515Z AUTO 14010KT 2 1/2SM UP OVC003 06/05 A2936 RMK AO2 T00550047
Observed
Feb-24 @ 05:15 UTC
Wind
  • 140° at 10 KTS
Visibility
2 1/2 SM
Flight Rules
LIFR
Conditions
Unknown precipitation
Cloud Levels
  • Overcast at 300' AGL
Temperature
C / 43°F
Dewpoint
C / 41°F
Humidity
93%
Altimeter
29.36" Hg
Pressure
994.22 hPa
Previous

44 mins ago

KLWA 240456Z AUTO 14009G15KT 4SM BR OVC003 05/04 A2939 RMK AO2 T00500042
Observed
Feb-24 @ 04:56 UTC
Wind
  • 140° at 9 KTS
  • Gusting to 15 KTS
Visibility
4 SM
Flight Rules
LIFR
Conditions
Mist
Cloud Levels
  • Overcast at 300' AGL
Temperature
C / 41°F
Dewpoint
C / 39°F
Humidity
93%
Altimeter
29.39" Hg
Pressure
995.22 hPa
Previous

1 hour ago

KLWA 240435Z AUTO 14009G16KT 3SM BR OVC003 05/04 A2943 RMK AO2 T00470040
Observed
Feb-24 @ 04:35 UTC
Wind
  • 140° at 9 KTS
  • Gusting to 16 KTS
Visibility
3 SM
Flight Rules
LIFR
Conditions
Mist
Cloud Levels
  • Overcast at 300' AGL
Temperature
C / 41°F
Dewpoint
C / 39°F
Humidity
93%
Altimeter
29.43" Hg
Pressure
996.62 hPa